Route Details

Aircraft Information
Group: North America Fleet
Types: B738, B752, B762, B763
Route Data
Distance: 582nm
Duration: 2h 00m
Origin METAR: KONT 010453Z 03013G19KT 10SM CLR 13/M11 A3008 RMK AO2 PK WND 04031/0409 SLP186 T01331111
Dest. METAR: KELP 010551Z 17005KT 10SM FEW180 FEW240 04/M04 A3007 RMK AO2 SLP164 T00441039 10128 20033 51009
Freight Data
(for Feb 1, 2023)
Load Factor:
64%
Manifested Cargo: 75,963lbs
Financial History
Total Freight: 149,001lbs
Average Load: 0lbs/flt
Fuel Used: 26,653lbs
Avg. Fuel Used: 0lbs/flt
Fuel Expense: $14,393
Avg. Fuel Expense: $0
Avg. Fuel Cost: $0/lbs
Total Gross Income: $379,953
Pilot Pay: $408
Total Expenses: $74,207
Total Revenue: $290,306
Average Revenue: $0

Capitol Logistics 405




KONT
Ontario International Airport
Ontario, California
KELP
El Paso International Airport
El Paso, Texas

Activity Log

Date Flight Route Aircraft Duration
07/17/2022 CPX405 RAJEE3 MTBAL CNERY BLH SALOM J169 TFD J50 SSO TEEES MOLLY5 B763 1h 31m
07/14/2022 CPX405 RAJEE3 MTBAL DCT CNERY DCT BLH DCT SALOM J169 TFD J50 SSO DCT TEEES MOLLY5 B752 1h 48m